Station Historical Data
Daily Summary for January 12, 2019 Units:  Metric    English   Both
« Previous Day
Next Day »
Daily Weekly Monthly Yearly Custom
  High: Low: Average:
Temperature: -17.8 °C 3.1 °C 7.1 °C
Dew Point: -17.8 °C -0.5 °C 2.9 °C
Humidity: Humidity % 56 % 76 %
Wind Speed: 0 km/h 0 km/h 3.7 km/h
Wind Gust: 0 km/h - -
Wind:- - SE
Pressure: 0 hPa 1016.5 hPa -
Precipitation: 5.59 mm    
Historical Graphs
 
 
Tabular Data for January 12, 2019
Time Temperature Dew Point Pressure Wind Wind Speed Wind Gust Humidity Rainfall Rate (Hourly) solar Conditions
-17.8 °C -17.8 °C 0 hPa Calm     Humidity % 0 mm SolarRadiationWatts/m^2 W/m2 Conditions
00:04 3.1 °C 0.3 °C 1023.6 hPa ESE 5.6 km/h 2.7 km/h 82 % 0.25 mm 0.00 W/m2 RA
00:09 3.1 °C 0.4 °C 1023.2 hPa Calm     83 % 0.25 mm 0.00 W/m2 RA
00:14 3.1 °C 0.4 °C 1023.6 hPa East 5.6 km/h 3.7 km/h 83 % 0.25 mm 0.00 W/m2 OVC
00:19 3.1 °C 0.3 °C 1023.6 hPa East 5.6 km/h 3.1 km/h 82 % 0.25 mm 0.00 W/m2 OVC
00:24 3.2 °C 0.4 °C 1023.2 hPa ESE 5.6 km/h 3.4 km/h 82 % 0.25 mm 0.00 W/m2 OVC
00:29 3.2 °C 0.4 °C 1023.2 hPa ESE 3.7 km/h 2.1 km/h 82 % 0.25 mm 0.00 W/m2 OVC
00:34 3.3 °C 0.7 °C 1023.6 hPa ESE 3.7 km/h 1.8 km/h 83 % 0 mm 0.00 W/m2 OVC
00:39 3.3 °C 0.7 °C 1023.6 hPa Calm     83 % 0 mm 0.00 W/m2 OVC
00:44 3.3 °C 0.8 °C 1023.2 hPa ESE 3.7 km/h 2.1 km/h 84 % 0 mm 0.00 W/m2 OVC
00:49 3.3 °C 0.9 °C 1023.2 hPa Calm     84 % 0 mm 0.00 W/m2 OVC
00:54 3.3 °C 0.9 °C 1023.2 hPa Calm     84 % 0 mm 0.00 W/m2 OVC
00:59 3.3 °C 0.9 °C 1023.2 hPa Calm     84 % 0 mm 0.00 W/m2 OVC
01:04 3.4 °C 1.1 °C 1022.9 hPa Calm     85 % 0 mm 0.00 W/m2 OVC
01:09 3.4 °C 1.1 °C 1022.9 hPa ESE 5.6 km/h 2.6 km/h 85 % 0 mm 0.00 W/m2 OVC
01:14 3.4 °C 1.1 °C 1022.9 hPa ESE 5.6 km/h 4.2 km/h 85 % 0 mm 0.00 W/m2 OVC
01:19 3.4 °C 0.8 °C 1022.9 hPa ESE 5.6 km/h 4 km/h 83 % 0 mm 0.00 W/m2 OVC
01:24 3.8 °C 0.8 °C 1022.9 hPa ESE 9.3 km/h 4.8 km/h 81 % 0 mm 0.00 W/m2 OVC
01:29 4.1 °C 0.7 °C 1022.9 hPa ESE 5.6 km/h 4.5 km/h 79 % 0 mm 0.00 W/m2 OVC
01:34 4.4 °C 0.8 °C 1022.6 hPa ESE 6.4 km/h 4.7 km/h 77 % 0.25 mm 0.00 W/m2 RA
01:39 4.7 °C 0.8 °C 1022.9 hPa ESE 5.6 km/h 4.5 km/h 76 % 0.25 mm 0.00 W/m2 RA
01:44 4.9 °C 0.8 °C 1022.9 hPa ESE 5.6 km/h 3.4 km/h 75 % 0.25 mm 0.00 W/m2 OVC
01:49 5.1 °C 0.8 °C 1022.6 hPa SE 5.6 km/h 3.9 km/h 74 % 0.25 mm 0.00 W/m2 OVC
01:54 5.2 °C 0.9 °C 1022.9 hPa ESE 5.6 km/h 2.7 km/h 74 % 0.25 mm 0.00 W/m2 OVC
01:59 5.3 °C 0.7 °C 1022.9 hPa SE 5.6 km/h 4 km/h 72 % 0.25 mm 0.00 W/m2 OVC
02:04 5.6 °C 0.7 °C 1022.9 hPa SE 5.6 km/h 4 km/h 71 % 0.25 mm 0.00 W/m2 OVC
02:09 5.7 °C 0.7 °C 1022.9 hPa SE 5.6 km/h 3.5 km/h 70 % 0.25 mm 0.00 W/m2 OVC
02:14 5.9 °C 0.7 °C 1022.9 hPa ESE 5.6 km/h 3.5 km/h 69 % 0.25 mm 0.00 W/m2 OVC
02:19 6.1 °C 0.6 °C 1022.6 hPa SE 5.6 km/h 3.5 km/h 68 % 0.25 mm 0.00 W/m2 OVC
02:24 6.2 °C 0.6 °C 1022.6 hPa ESE 5.6 km/h 3.5 km/h 67 % 0.25 mm 0.00 W/m2 OVC
02:29 6.3 °C 0.4 °C 1022.9 hPa SE 5.6 km/h 2.6 km/h 66 % 0.25 mm 0.00 W/m2 OVC
02:34 6.4 °C 0.6 °C 1022.9 hPa SE 6.4 km/h 3.5 km/h 66 % 0 mm 0.00 W/m2 OVC
02:39 6.6 °C 0.4 °C 1022.9 hPa SE 3.7 km/h 2.4 km/h 65 % 0 mm 0.00 W/m2 OVC
02:44 6.6 °C 0.7 °C 1022.6 hPa SE 3.7 km/h 2.3 km/h 66 % 0 mm 0.00 W/m2 OVC
02:49 6.7 °C 0.6 °C 1022.6 hPa SE 3.7 km/h 2.9 km/h 65 % 0 mm 0.00 W/m2 OVC
02:54 6.7 °C 0.2 °C 1022.2 hPa SE 5.6 km/h 3.2 km/h 63 % 0 mm 0.00 W/m2 OVC
02:59 6.8 °C 0.7 °C 1022.6 hPa SSE 3.7 km/h 0.6 km/h 65 % 0 mm 0.00 W/m2 OVC
03:04 6.8 °C 0.3 °C 1022.6 hPa SE 5.6 km/h 3.9 km/h 63 % 0 mm 0.00 W/m2 OVC
03:09 7 °C 0.2 °C 1022.2 hPa SE 3.7 km/h 1.8 km/h 62 % 0 mm 0.00 W/m2 OVC
03:14 7.1 °C 0.3 °C 1022.2 hPa SE 5.6 km/h 3.4 km/h 62 % 0 mm 0.00 W/m2 OVC
03:19 7.1 °C 0.3 °C 1022.2 hPa SE 5.6 km/h 3.2 km/h 62 % 0 mm 0.00 W/m2 OVC
03:24 7.2 °C 0.2 °C 1022.6 hPa SE 5.6 km/h 2.4 km/h 61 % 0 mm 0.00 W/m2 OVC
03:29 7.2 °C -0.1 °C 1022.2 hPa SE 3.7 km/h 3.2 km/h 60 % 0 mm 0.00 W/m2 OVC
03:34 7.3 °C 0 °C 1022.2 hPa ESE 5.6 km/h 3.4 km/h 60 % 0 mm 0.00 W/m2 OVC
03:39 7.4 °C -0.1 °C 1022.2 hPa SE 5.6 km/h 3.7 km/h 59 % 0 mm 0.00 W/m2 OVC
03:44 7.4 °C -0.3 °C 1021.9 hPa SE 5.6 km/h 3.7 km/h 58 % 0 mm 0.00 W/m2 OVC
03:49 7.6 °C -0.2 °C 1022.2 hPa ESE 5.6 km/h 3.5 km/h 58 % 0 mm 0.00 W/m2 OVC
03:54 7.6 °C -0.1 °C 1022.2 hPa SE 5.6 km/h 2.3 km/h 58 % 0 mm 0.00 W/m2 OVC
03:59 7.6 °C -0.1 °C 1022.2 hPa SE 5.6 km/h 2.9 km/h 58 % 0 mm 0.00 W/m2 OVC
04:04 7.7 °C -0.3 °C 1022.6 hPa SSE 5.6 km/h 4.2 km/h 57 % 0 mm 0.00 W/m2 OVC
04:09 7.7 °C -0.1 °C 1022.2 hPa SE 5.6 km/h 3.5 km/h 58 % 0 mm 0.00 W/m2 OVC
04:14 7.7 °C -0.3 °C 1022.6 hPa SE 5.6 km/h 2.7 km/h 57 % 0 mm 0.00 W/m2 OVC
04:19 7.7 °C -0.1 °C 1022.2 hPa ESE 5.6 km/h 4 km/h 58 % 0 mm 0.00 W/m2 OVC
04:24 7.7 °C -0.5 °C 1021.9 hPa SE 11.1 km/h 5.5 km/h 56 % 0 mm 0.00 W/m2 OVC
04:29 7.7 °C -0.3 °C 1021.9 hPa ESE 6.4 km/h 4.7 km/h 57 % 0 mm 0.00 W/m2 OVC
04:34 7.8 °C -0.2 °C 1021.9 hPa ESE 5.6 km/h 4.2 km/h 57 % 0 mm 0.00 W/m2 OVC
04:39 7.8 °C -0.4 °C 1021.9 hPa SSE 11.1 km/h 5.5 km/h 56 % 0 mm 0.00 W/m2 OVC
04:44 7.8 °C -0.2 °C 1021.6 hPa SSE 3.7 km/h 1.8 km/h 57 % 0 mm 0.00 W/m2 OVC
04:49 7.8 °C -0.2 °C 1022.2 hPa SE 5.6 km/h 1.8 km/h 57 % 0 mm 0.00 W/m2 OVC
04:54 7.7 °C -0.3 °C 1022.2 hPa NNW 3.2 km/h 0.2 km/h 57 % 0 mm 0.00 W/m2 OVC
04:59 7.7 °C -0.1 °C 1022.2 hPa East 3.7 km/h 1.8 km/h 58 % 0 mm 0.00 W/m2 OVC
05:04 7.7 °C -0.1 °C 1022.6 hPa SSE 3.7 km/h 1.4 km/h 58 % 0 mm 0.00 W/m2 OVC
05:09 7.7 °C -0.1 °C 1022.2 hPa SSE 3.7 km/h 2.7 km/h 58 % 0 mm 0.00 W/m2 OVC
05:14 7.6 °C 0.1 °C 1021.9 hPa ESE 6.4 km/h 5.5 km/h 59 % 0 mm 0.00 W/m2 OVC
05:19 7.5 °C 0.4 °C 1021.6 hPa ESE 6.4 km/h 6.1 km/h 61 % 0 mm 0.00 W/m2 OVC
05:24 7.4 °C 0.4 °C 1021.9 hPa SE 5.6 km/h 4.5 km/h 61 % 0 mm 0.00 W/m2 OVC
05:29 7.3 °C 0.5 °C 1021.9 hPa ESE 11.1 km/h 4.7 km/h 62 % 0 mm 0.00 W/m2 OVC
05:34 7.3 °C 0.2 °C 1021.9 hPa SE 9.3 km/h 4.3 km/h 61 % 0 mm 0.00 W/m2 OVC
05:39 7.2 °C 0.8 °C 1021.9 hPa ESE 5.6 km/h 4.2 km/h 64 % 0 mm 0.00 W/m2 OVC
05:44 7.2 °C 1.1 °C 1022.2 hPa SE 5.6 km/h 4 km/h 65 % 0 mm 0.00 W/m2 OVC
05:49 7.1 °C 1.2 °C 1022.2 hPa SE 5.6 km/h 3.2 km/h 66 % 0 mm 0.00 W/m2 OVC
05:54 7 °C 1.5 °C 1022.2 hPa SE 3.7 km/h 2.6 km/h 68 % 0 mm 0.00 W/m2 OVC
05:59 6.9 °C 1.4 °C 1022.6 hPa SE 3.7 km/h 2.1 km/h 68 % 0 mm 0.00 W/m2 OVC
06:04 6.8 °C 1.3 °C 1022.9 hPa Calm     68 % 0 mm 0.00 W/m2 OVC
06:09 6.8 °C 1.3 °C 1022.6 hPa Calm     68 % 0 mm 0.00 W/m2 OVC
06:14 6.7 °C 1.4 °C 1022.2 hPa SE 5.6 km/h 3.4 km/h 69 % 0 mm 0.00 W/m2 OVC
06:19 6.7 °C 2 °C 1021.9 hPa SE 3.7 km/h 2.7 km/h 72 % 0 mm 0.00 W/m2 OVC
06:24 6.6 °C 2.1 °C 1022.6 hPa WNW 6.4 km/h 2.9 km/h 73 % 0 mm 0.00 W/m2 OVC
06:29 6.4 °C 1.7 °C 1022.9 hPa West 5.6 km/h 4.5 km/h 72 % 0 mm 0.00 W/m2 OVC
06:34 6.3 °C 1.7 °C 1022.9 hPa West 1.9 km/h 1 km/h 72 % 0 mm 0.00 W/m2 OVC
06:39 6.3 °C 1.7 °C 1023.6 hPa WSW 5.6 km/h 3.2 km/h 72 % 0 mm 0.00 W/m2 OVC
06:44 6.3 °C 1.4 °C 1022.9 hPa Calm     71 % 0 mm 0.00 W/m2 OVC
06:49 6.3 °C 1.4 °C 1022.9 hPa Calm     71 % 0 mm 0.00 W/m2 OVC
06:54 6.3 °C 1.2 °C 1023.6 hPa Calm     70 % 0 mm 0.00 W/m2 OVC
06:59 6.3 °C 1.1 °C 1023.6 hPa Calm     69 % 0 mm 0.00 W/m2 OVC
07:04 6.3 °C 0.8 °C 1023.6 hPa Calm     68 % 0 mm 0.00 W/m2 OVC
07:09 6.4 °C 1.1 °C 1023.6 hPa Calm     69 % 0 mm 0.00 W/m2 OVC
07:14 6.4 °C 0.8 °C 1023.6 hPa Calm     67 % 0 mm 7.00 W/m2 OVC
07:19 6.4 °C 0.8 °C 1023.6 hPa Calm     67 % 0 mm 11.00 W/m2 OVC
07:24 6.4 °C 0.3 °C 1023.6 hPa Calm     65 % 0 mm 12.00 W/m2 OVC
07:29 6.5 °C 0.4 °C 1023.9 hPa Calm     65 % 0 mm 14.00 W/m2 OVC
07:34 6.5 °C 0.2 °C 1023.6 hPa Calm     64 % 0 mm 21.00 W/m2 OVC
07:39 6.6 °C 0.1 °C 1023.6 hPa Calm     63 % 0 mm 33.00 W/m2 OVC
07:44 6.7 °C 0.2 °C 1023.6 hPa Calm     63 % 0 mm 44.00 W/m2 OVC
07:49 6.7 °C 1.4 °C 1023.6 hPa Calm     69 % 0 mm 51.00 W/m2 OVC
07:54 6.7 °C 1.2 °C 1023.6 hPa Calm     68 % 0 mm 53.00 W/m2 OVC
07:59 6.6 °C 1.5 °C 1023.6 hPa Calm     70 % 0 mm 60.00 W/m2 OVC
08:04 6.6 °C 1.4 °C 1023.6 hPa Calm     70 % 0 mm 65.00 W/m2 CLR
08:09 6.4 °C 1.6 °C 1023.9 hPa Calm     71 % 0 mm 67.00 W/m2 CLR
08:14 6.4 °C 1.4 °C 1023.9 hPa Calm     70 % 0 mm 67.00 W/m2 CLR
08:19 6.4 °C 2.2 °C 1023.9 hPa Calm     74 % 0 mm 67.00 W/m2 CLR
08:24 6.4 °C 1.8 °C 1024.3 hPa Calm     72 % 0 mm 74.00 W/m2 CLR
08:29 6.4 °C 2.3 °C 1023.9 hPa Calm     75 % 0 mm 79.00 W/m2 CLR
08:34 6.6 °C 3 °C 1024.3 hPa Calm     78 % 0 mm 84.00 W/m2 CLR
08:39 6.6 °C 2.8 °C 1024.3 hPa Calm     77 % 0 mm 86.00 W/m2 CLR
08:44 6.6 °C 2.9 °C 1024.3 hPa Calm     77 % 0 mm 86.00 W/m2 CLR
08:49 6.7 °C 3.1 °C 1024.3 hPa Calm     78 % 0 mm 95.00 W/m2 CLR
08:54 6.7 °C 2 °C 1024.3 hPa Calm     72 % 0 mm 146.00 W/m2 CLR
08:59 6.9 °C 1.8 °C 1023.9 hPa Calm   0.8 km/h 70 % 0 mm 181.00 W/m2 CLR
09:04 7.2 °C 1.3 °C 1023.9 hPa SE 3.7 km/h 1.8 km/h 66 % 0 mm 163.00 W/m2 CLR
09:09 7.5 °C 1.6 °C 1023.9 hPa SE 3.7 km/h 2.6 km/h 66 % 0 mm 144.00 W/m2 CLR
09:14 7.8 °C 0.9 °C 1023.9 hPa ESE 5.6 km/h 3.7 km/h 62 % 0 mm 93.00 W/m2 CLR
09:19 8 °C 0.9 °C 1023.9 hPa SE 3.7 km/h 2.7 km/h 61 % 0 mm 79.00 W/m2 CLR
09:24 8.2 °C 1.1 °C 1023.9 hPa SSE 3.7 km/h 2.7 km/h 61 % 0 mm 91.00 W/m2 CLR
09:29 8.3 °C 1 °C 1024.3 hPa SE 5.6 km/h 2.6 km/h 60 % 0 mm 83.00 W/m2 CLR
09:34 8.4 °C 1.3 °C 1024.3 hPa South 3.7 km/h 0.2 km/h 61 % 0 mm 69.00 W/m2 CLR
09:39 8.6 °C 1.4 °C 1023.9 hPa Calm     61 % 0 mm 120.00 W/m2 CLR
09:44 8.7 °C 1.4 °C 1023.6 hPa SE 5.6 km/h 2.4 km/h 60 % 0 mm 107.00 W/m2 CLR
09:49 8.9 °C 1.8 °C 1023.6 hPa SE 5.6 km/h 3.2 km/h 61 % 0 mm 139.00 W/m2 CLR
09:54 9.1 °C 1.4 °C 1023.6 hPa SE 5.6 km/h 2.6 km/h 59 % 0 mm 144.00 W/m2 CLR
09:59 9.2 °C 1.6 °C 1023.6 hPa SE 5.6 km/h 3.9 km/h 59 % 0 mm 98.00 W/m2 CLR
10:04 9.4 °C 2.2 °C 1023.6 hPa ESE 6.4 km/h 6.1 km/h 61 % 0 mm 79.00 W/m2 BKN
10:09 9.5 °C 1.9 °C 1023.6 hPa ESE 11.1 km/h 5.6 km/h 59 % 0 mm 74.00 W/m2 BKN
10:14 9.6 °C 1.9 °C 1023.2 hPa SE 11.1 km/h 5.5 km/h 59 % 0 mm 77.00 W/m2 OVC
10:19 9.6 °C 2.2 °C 1023.2 hPa SE 5.6 km/h 4.8 km/h 60 % 0 mm 77.00 W/m2 OVC
10:24 9.7 °C 2.3 °C 1022.9 hPa ESE 5.6 km/h 3.4 km/h 60 % 0 mm 100.00 W/m2 OVC
10:29 9.7 °C 2.1 °C 1022.9 hPa SSE 5.6 km/h 4.7 km/h 59 % 0 mm 70.00 W/m2 OVC
10:34 9.7 °C 2.3 °C 1022.9 hPa SE 13 km/h 6 km/h 60 % 0 mm 51.00 W/m2 OVC
10:39 9.7 °C 2.6 °C 1022.9 hPa ESE 7.4 km/h 5 km/h 61 % 0 mm 49.00 W/m2 OVC
10:44 9.7 °C 2.6 °C 1022.6 hPa SE 11.1 km/h 7.4 km/h 61 % 0 mm 63.00 W/m2 OVC
10:49 9.7 °C 2.3 °C 1022.9 hPa West 9.3 km/h 5.6 km/h 60 % 0 mm 46.00 W/m2 OVC
10:54 9.7 °C 2.3 °C 1022.9 hPa SSE 7.4 km/h 6.4 km/h 60 % 0 mm 47.00 W/m2 OVC
10:59 9.7 °C 2.3 °C 1022.9 hPa SSE 9.3 km/h 6 km/h 60 % 0 mm 47.00 W/m2 OVC
11:04 9.7 °C 2.6 °C 1022.9 hPa SE 6.4 km/h 4.7 km/h 61 % 0 mm 69.00 W/m2 OVC
11:09 9.7 °C 2.6 °C 1022.6 hPa SE 8 km/h 5.3 km/h 61 % 0 mm 70.00 W/m2 OVC
11:14 9.7 °C 2.3 °C 1022.6 hPa SE 8 km/h 6 km/h 60 % 0 mm 76.00 W/m2 OVC
11:19 9.7 °C 2.3 °C 1022.2 hPa SSE 8 km/h 6.3 km/h 60 % 0 mm 65.00 W/m2 OVC
11:24 9.8 °C 2.6 °C 1022.2 hPa ESE 5.6 km/h 4.8 km/h 61 % 0 mm 98.00 W/m2 OVC
11:29 9.8 °C 2.6 °C 1021.9 hPa ESE 7.4 km/h 6.8 km/h 61 % 0 mm 97.00 W/m2 OVC
11:34 9.8 °C 2.4 °C 1021.9 hPa SE 11.1 km/h 5.3 km/h 60 % 0 mm 141.00 W/m2 OVC
11:39 9.9 °C 2.2 °C 1021.6 hPa SSE 14.5 km/h 6.3 km/h 59 % 0 mm 144.00 W/m2 OVC
11:44 9.9 °C 2.3 °C 1021.2 hPa SE 13 km/h 7.9 km/h 59 % 0 mm 134.00 W/m2 OVC
11:49 10.1 °C 2.4 °C 1021.2 hPa ESE 11.1 km/h 6.8 km/h 59 % 0 mm 107.00 W/m2 OVC
11:54 10.1 °C 2.7 °C 1020.9 hPa ESE 9.3 km/h 5.1 km/h 60 % 0 mm 91.00 W/m2 OVC
11:59 10.1 °C 2.4 °C 1020.9 hPa SE 5.6 km/h 5.3 km/h 59 % 0 mm 88.00 W/m2 OVC
12:04 10.1 °C 2.7 °C 1020.5 hPa SE 9.3 km/h 3.7 km/h 60 % 0 mm 60.00 W/m2 OVC
12:09 10.1 °C 2.2 °C 1020.5 hPa SE 7.4 km/h 5.1 km/h 58 % 0 mm 58.00 W/m2 OVC
12:14 10.1 °C 2.4 °C 1020.2 hPa East 7.4 km/h 5 km/h 59 % 0 mm 58.00 W/m2 OVC
12:19 10 °C 2.3 °C 1020.2 hPa ESE 8 km/h 4.3 km/h 59 % 0 mm 74.00 W/m2 OVC
12:24 9.9 °C 2.3 °C 1020.2 hPa SE 11.3 km/h 6.9 km/h 59 % 0 mm 63.00 W/m2 OVC
12:29 9.9 °C 2.3 °C 1019.9 hPa East 9.3 km/h 5.3 km/h 59 % 0 mm 74.00 W/m2 OVC
12:34 9.9 °C 2.3 °C 1019.9 hPa SE 11.1 km/h 7.4 km/h 59 % 0 mm 81.00 W/m2 OVC
12:39 9.9 °C 2.3 °C 1020.2 hPa SE 9.7 km/h 9.2 km/h 59 % 0 mm 70.00 W/m2 OVC
12:44 9.9 °C 2.3 °C 1020.2 hPa ESE 11.3 km/h 6.3 km/h 59 % 0 mm 67.00 W/m2 OVC
12:49 9.9 °C 2.2 °C 1019.9 hPa ESE 12.9 km/h 9.7 km/h 59 % 0 mm 51.00 W/m2 OVC
12:54 9.9 °C 2 °C 1019.9 hPa SE 5.6 km/h 3.7 km/h 58 % 0 mm 44.00 W/m2 OVC
12:59 9.8 °C 2.2 °C 1019.5 hPa SE 5.6 km/h 6 km/h 59 % 0 mm 39.00 W/m2 OVC
13:04 9.8 °C 1.9 °C 1019.5 hPa SSE 14.8 km/h 8.4 km/h 58 % 0 mm 53.00 W/m2 OVC
13:09 9.8 °C 2.1 °C 1019.5 hPa SE 11.1 km/h 6.4 km/h 59 % 0 mm 54.00 W/m2 OVC
13:14 9.7 °C 2.1 °C 1019.9 hPa SE 7.4 km/h 5 km/h 59 % 0 mm 49.00 W/m2 OVC
13:19 9.7 °C 2.3 °C 1019.5 hPa SE 5.6 km/h 2.3 km/h 60 % 0 mm 39.00 W/m2 OVC
13:24 9.7 °C 2.6 °C 1019.5 hPa SE 3.7 km/h 2.4 km/h 61 % 0 mm 37.00 W/m2 OVC
13:29 9.7 °C 2.5 °C 1019.5 hPa SE 5.6 km/h 4.8 km/h 61 % 0 mm 39.00 W/m2 OVC
13:34 9.6 °C 2.7 °C 1019.2 hPa SE 7.4 km/h 2.3 km/h 62 % 0 mm 86.00 W/m2 OVC
13:39 9.6 °C 2.8 °C 1019.2 hPa SE 5.6 km/h 5.1 km/h 63 % 0 mm 134.00 W/m2 OVC
13:44 9.6 °C 3.1 °C 1018.8 hPa ESE 3.7 km/h 1.8 km/h 64 % 0 mm 104.00 W/m2 OVC
13:49 9.6 °C 3.1 °C 1018.8 hPa SE 5.6 km/h 2.1 km/h 64 % 0 mm 81.00 W/m2 OVC
13:54 9.6 °C 2.9 °C 1019.2 hPa SE 7.4 km/h 4 km/h 63 % 0 mm 35.00 W/m2 OVC
13:59 9.6 °C 2.8 °C 1019.2 hPa SSE 7.4 km/h 5 km/h 63 % 0 mm 30.00 W/m2 OVC
14:04 9.6 °C 2.8 °C 1018.8 hPa ENE 5.6 km/h 3.7 km/h 63 % 0 mm 39.00 W/m2 -RA
14:09 9.6 °C 2.6 °C 1018.8 hPa SE 5.6 km/h 3.4 km/h 62 % 0 mm 35.00 W/m2 -RA
14:14 9.5 °C 2.8 °C 1019.2 hPa SE 3.7 km/h 0.6 km/h 63 % 0 mm 23.00 W/m2 -RA
14:19 9.5 °C 2.6 °C 1018.8 hPa SE 3.7 km/h   62 % 0 mm 21.00 W/m2 -RA
14:24 9.5 °C 2.6 °C 1019.2 hPa SE 5.6 km/h 3.7 km/h 62 % 0 mm 19.00 W/m2 -RA
14:29 9.4 °C 2.9 °C 1019.5 hPa Calm   0.3 km/h 64 % 0 mm 12.00 W/m2 -RA
14:34 9.4 °C 3.4 °C 1019.5 hPa Calm     66 % 0 mm 14.00 W/m2 -RA
14:39 9.4 °C 4.2 °C 1019.5 hPa Calm     70 % 0.25 mm 23.00 W/m2 -RA
14:44 9.3 °C 4.3 °C 1019.2 hPa Calm     71 % 0.25 mm 19.00 W/m2 -RA
14:49 9.2 °C 4.8 °C 1019.2 hPa Calm     74 % 0.25 mm 18.00 W/m2 -RA
14:54 8.9 °C 4.7 °C 1018.8 hPa Calm     75 % 0.51 mm 11.00 W/m2 -RA
14:59 8.8 °C 4.8 °C 1018.8 hPa Calm     76 % 0.51 mm 11.00 W/m2 -RA
15:04 8.6 °C 5.3 °C 1018.5 hPa Calm     80 % 0.76 mm 12.00 W/m2 -RA
15:09 8.2 °C 5.3 °C 1018.5 hPa Calm     82 % 1.02 mm 21.00 W/m2 -RA
15:14 8 °C 5.3 °C 1018.5 hPa Calm     83 % 1.02 mm 18.00 W/m2 -RA
15:19 7.7 °C 5.2 °C 1018.5 hPa Calm     84 % 1.27 mm 16.00 W/m2 -RA
15:24 7.6 °C 5 °C 1018.5 hPa Calm     84 % 1.27 mm 12.00 W/m2 -RA
15:29 7.3 °C 5 °C 1018.2 hPa Calm     85 % 1.27 mm 12.00 W/m2 -RA
15:34 7.2 °C 5 °C 1018.2 hPa NE 4.8 km/h 2.1 km/h 86 % 1.52 mm 14.00 W/m2 -RA
15:39 7.1 °C 5.1 °C 1018.2 hPa ESE 5.6 km/h 1.9 km/h 87 % 1.27 mm 9.00 W/m2 -RA
15:44 6.9 °C 5.1 °C 1018.2 hPa ESE 3.7 km/h 1.4 km/h 88 % 1.27 mm 9.00 W/m2 -RA
15:49 6.9 °C 5.2 °C 1018.2 hPa ESE 3.7 km/h 2.3 km/h 89 % 1.27 mm 9.00 W/m2 -RA
15:54 6.8 °C 5.1 °C 1018.5 hPa SE 3.7 km/h 1.8 km/h 89 % 1.27 mm 5.00 W/m2 -RA
15:59 6.7 °C 5.1 °C 1018.5 hPa ESE 5.6 km/h 5 km/h 89 % 1.27 mm 5.00 W/m2 -RA
16:04 6.7 °C 5.1 °C 1018.5 hPa SE 6.4 km/h 3.2 km/h 89 % 1.02 mm 0.00 W/m2 -RA
16:09 6.7 °C 5.1 °C 1018.5 hPa SE 5.6 km/h 3.9 km/h 89 % 0.76 mm 5.00 W/m2 -RA
16:14 6.7 °C 5.1 °C 1018.2 hPa SE 5.6 km/h 3.2 km/h 89 % 1.02 mm 0.00 W/m2 -RA
16:19 6.7 °C 5.2 °C 1018.5 hPa SE 5.6 km/h 2.6 km/h 90 % 0.76 mm 0.00 W/m2 -RA
16:24 6.7 °C 5.2 °C 1018.5 hPa ESE 3.7 km/h 1.3 km/h 90 % 0.76 mm 0.00 W/m2 -RA
16:29 6.7 °C 5.2 °C 1018.2 hPa ESE 5.6 km/h 2.4 km/h 90 % 1.02 mm 0.00 W/m2 -RA
16:34 6.7 °C 5.3 °C 1018.2 hPa East 3.7 km/h 0.8 km/h 91 % 0.76 mm 0.00 W/m2 -RA
16:39 6.6 °C 5.2 °C 1017.8 hPa NE 3.2 km/h   91 % 1.02 mm 5.00 W/m2 -RA
16:44 6.6 °C 5.3 °C 1018.2 hPa North 3.2 km/h 1.4 km/h 92 % 1.02 mm 0.00 W/m2 -RA
16:49 6.5 °C 5.3 °C 1017.8 hPa NNE 3.7 km/h 1.3 km/h 92 % 1.27 mm 0.00 W/m2 -RA
16:54 6.4 °C 5.2 °C 1017.5 hPa ENE 3.7 km/h 2.7 km/h 92 % 1.02 mm 0.00 W/m2 -RA
16:59 6.4 °C 5.3 °C 1017.5 hPa East 3.7 km/h 2.9 km/h 93 % 1.02 mm 0.00 W/m2 -RA
17:04 6.3 °C 5.2 °C 1017.5 hPa ESE 5.6 km/h 3.4 km/h 93 % 1.02 mm 0.00 W/m2 -RA
17:09 6.2 °C 5.2 °C 1017.5 hPa East 3.7 km/h 2.7 km/h 93 % 1.02 mm 0.00 W/m2 -RA
17:14 6.2 °C 5.1 °C 1017.5 hPa ESE 5.6 km/h 3.2 km/h 93 % 0.76 mm 0.00 W/m2 -RA
17:19 6.2 °C 5.1 °C 1017.8 hPa ESE 5.6 km/h 2.7 km/h 93 % 0.76 mm 0.00 W/m2 -RA
17:24 6.1 °C 5.1 °C 1017.8 hPa ESE 5.6 km/h 3.1 km/h 93 % 0.76 mm 0.00 W/m2 -RA
17:29 6.1 °C 5 °C 1017.5 hPa Calm     93 % 0.51 mm 0.00 W/m2 -RA
17:34 6.1 °C 5.1 °C 1017.5 hPa ENE 3.7 km/h 1.8 km/h 93 % 0.51 mm 0.00 W/m2 -RA
17:39 6.1 °C 5.2 °C 1017.8 hPa Calm     94 % 0.25 mm 0.00 W/m2 -RA
17:44 6.1 °C 5.2 °C 1018.2 hPa Calm     94 % 0.25 mm 0.00 W/m2 -RA
17:49 6.1 °C 5.2 °C 1017.8 hPa ESE 5.6 km/h 2.9 km/h 94 % 0 mm 0.00 W/m2 -RA
17:54 6.1 °C 5.2 °C 1017.8 hPa SE 5.6 km/h 3.5 km/h 94 % 0.25 mm 0.00 W/m2 -RA
17:59 6.1 °C 5.2 °C 1017.8 hPa ESE 5.6 km/h 4 km/h 94 % 0.25 mm 0.00 W/m2 -RA
18:04 6.1 °C 5.2 °C 1017.8 hPa ESE 5.6 km/h 2.4 km/h 94 % 0.25 mm 0.00 W/m2 -RA
18:09 6.1 °C 5.2 °C 1017.5 hPa ESE 3.7 km/h 2.6 km/h 94 % 0.25 mm 0.00 W/m2 -RA
18:14 6.1 °C 5.2 °C 1017.5 hPa SE 5.6 km/h 2.9 km/h 94 % 0.51 mm 0.00 W/m2 -RA
18:19 6.1 °C 5.2 °C 1017.5 hPa ESE 5.6 km/h 3.1 km/h 94 % 0.76 mm 0.00 W/m2 -RA
18:24 6.1 °C 5.2 °C 1017.5 hPa ESE 5.6 km/h 1.8 km/h 94 % 1.27 mm 0.00 W/m2 -RA
18:29 6.1 °C 5.2 °C 1017.5 hPa ESE 3.7 km/h 1 km/h 94 % 1.78 mm 0.00 W/m2 -RA
18:34 6.1 °C 5.2 °C 1017.5 hPa ESE 3.7 km/h   94 % 2.03 mm 0.00 W/m2 -RA
18:39 6.1 °C 5.4 °C 1017.5 hPa ESE 1.9 km/h 0.2 km/h 95 % 2.03 mm 0.00 W/m2 -RA
18:44 6.1 °C 5.2 °C 1017.5 hPa ESE 1.9 km/h   94 % 2.03 mm 0.00 W/m2 -RA
18:49 6.1 °C 5.4 °C 1017.5 hPa SE 3.7 km/h 0.8 km/h 95 % 2.03 mm 0.00 W/m2 -RA
18:54 6.1 °C 5.4 °C 1017.8 hPa Calm     95 % 2.03 mm 0.00 W/m2 -RA
18:59 6.1 °C 5.4 °C 1017.5 hPa Calm     95 % 2.03 mm 0.00 W/m2 -RA
19:04 6.1 °C 5.4 °C 1017.5 hPa Calm     95 % 2.03 mm 0.00 W/m2 -RA
19:09 6.1 °C 5.4 °C 1017.5 hPa Calm     95 % 2.03 mm 0.00 W/m2 -RA
19:14 6.1 °C 5.4 °C 1017.5 hPa Calm     95 % 1.78 mm 0.00 W/m2 -RA
19:19 6.1 °C 5.4 °C 1017.5 hPa Calm     95 % 1.52 mm 0.00 W/m2 -RA
19:24 6.1 °C 5.4 °C 1017.5 hPa Calm     95 % 1.02 mm 0.00 W/m2 -RA
19:29 6.1 °C 5.4 °C 1017.5 hPa Calm     95 % 0.76 mm 0.00 W/m2 -RA
19:34 6.1 °C 5.4 °C 1017.5 hPa Calm     95 % 0.51 mm 0.00 W/m2 -RA
19:39 6.1 °C 5.4 °C 1017.5 hPa Calm     95 % 0.51 mm 0.00 W/m2 -RA
19:44 6.2 °C 5.4 °C 1017.5 hPa Calm     95 % 0.51 mm 0.00 W/m2 -RA
19:49 6.2 °C 5.4 °C 1017.8 hPa Calm     95 % 0.51 mm 0.00 W/m2 -RA
19:54 6.2 °C 5.6 °C 1017.8 hPa Calm     96 % 0.25 mm 0.00 W/m2 -RA
19:59 6.2 °C 5.6 °C 1017.5 hPa Calm     96 % 0.25 mm 0.00 W/m2 -RA
20:04 6.2 °C 5.6 °C 1017.5 hPa SE 3.7 km/h 1.1 km/h 96 % 0.25 mm 0.00 W/m2 -RA
20:09 6.2 °C 5.6 °C 1017.8 hPa SE 1.9 km/h 0.2 km/h 96 % 0.25 mm 0.00 W/m2 -RA
20:14 6.3 °C 5.7 °C 1017.8 hPa Calm     96 % 0.25 mm 0.00 W/m2 -RA
20:19 6.3 °C 5.7 °C 1017.8 hPa Calm     96 % 0.25 mm 0.00 W/m2 -RA
20:24 6.3 °C 5.7 °C 1017.8 hPa Calm     96 % 0.25 mm 0.00 W/m2 -RA
20:29 6.3 °C 5.7 °C 1017.8 hPa Calm     96 % 0 mm 0.00 W/m2 -RA
20:34 6.3 °C 5.7 °C 1017.5 hPa SE 3.7 km/h 1.8 km/h 96 % 0 mm 0.00 W/m2 -RA
20:39 6.3 °C 5.7 °C 1017.8 hPa Calm     96 % 0 mm 0.00 W/m2 -RA
20:44 6.4 °C 5.8 °C 1017.5 hPa Calm     96 % 0 mm 0.00 W/m2 -RA
20:49 6.4 °C 5.8 °C 1017.5 hPa Calm     96 % 0 mm 0.00 W/m2 -RA
20:54 6.4 °C 5.8 °C 1017.5 hPa Calm     96 % 0 mm 0.00 W/m2 -RA
20:59 6.4 °C 5.8 °C 1017.8 hPa Calm     96 % 0 mm 0.00 W/m2 -RA
21:04 6.5 °C 5.9 °C 1017.5 hPa Calm     96 % 0 mm 0.00 W/m2 OVC
21:09 6.5 °C 5.9 °C 1017.8 hPa Calm     96 % 0 mm 0.00 W/m2 OVC
21:14 6.6 °C 5.9 °C 1017.5 hPa Calm     96 % 0 mm 0.00 W/m2 OVC
21:19 6.6 °C 5.9 °C 1017.5 hPa Calm     96 % 0 mm 0.00 W/m2 OVC
21:24 6.6 °C 6 °C 1017.5 hPa Calm     96 % 0 mm 0.00 W/m2 OVC
21:29 6.7 °C 6.1 °C 1017.5 hPa Calm     96 % 0 mm 0.00 W/m2 OVC
21:34 6.7 °C 6.1 °C 1017.5 hPa SE 1.9 km/h   96 % 0 mm 0.00 W/m2 OVC
21:39 6.7 °C 6.1 °C 1017.5 hPa SE 4.8 km/h 1.9 km/h 96 % 0 mm 0.00 W/m2 OVC
21:44 6.8 °C 6.2 °C 1017.5 hPa SE 3.7 km/h 2.4 km/h 96 % 0 mm 0.00 W/m2 OVC
21:49 6.8 °C 6.2 °C 1017.5 hPa SE 1.9 km/h   96 % 0 mm 0.00 W/m2 OVC
21:54 6.8 °C 6.2 °C 1017.5 hPa Calm     96 % 0 mm 0.00 W/m2 OVC
21:59 6.9 °C 6.3 °C 1017.5 hPa Calm     96 % 0 mm 0.00 W/m2 OVC
22:04 6.8 °C 6.2 °C 1017.5 hPa Calm     96 % 0 mm 0.00 W/m2 OVC
22:09 6.8 °C 6.2 °C 1017.5 hPa Calm     96 % 0 mm 0.00 W/m2 OVC
22:14 6.8 °C 6.2 °C 1017.5 hPa Calm     96 % 0 mm 0.00 W/m2 OVC
22:19 6.8 °C 6.2 °C 1017.5 hPa Calm     96 % 0 mm 0.00 W/m2 OVC
22:24 6.7 °C 6.1 °C 1017.2 hPa Calm     96 % 0 mm 0.00 W/m2 OVC
22:29 6.7 °C 6.1 °C 1017.2 hPa Calm     96 % 0 mm 0.00 W/m2 OVC
22:34 6.8 °C 6.2 °C 1017.2 hPa Calm     96 % 0 mm 0.00 W/m2 OVC
22:39 6.8 °C 6.2 °C 1017.2 hPa Calm     96 % 0 mm 0.00 W/m2 OVC
22:44 6.8 °C 6.2 °C 1017.2 hPa Calm     96 % 0 mm 0.00 W/m2 OVC
22:49 6.8 °C 6.2 °C 1017.2 hPa Calm     96 % 0 mm 0.00 W/m2 OVC
22:54 6.8 °C 6.2 °C 1017.2 hPa Calm     96 % 0 mm 0.00 W/m2 OVC
22:59 6.8 °C 6.2 °C 1017.2 hPa Calm     96 % 0 mm 0.00 W/m2 OVC
23:04 6.8 °C 6.2 °C 1016.8 hPa Calm     96 % 0 mm 0.00 W/m2 OVC
23:09 6.8 °C 6.2 °C 1016.8 hPa Calm     96 % 0 mm 0.00 W/m2 OVC
23:14 6.9 °C 6.3 °C 1016.8 hPa Calm     96 % 0 mm 0.00 W/m2 OVC
23:19 6.9 °C 6.3 °C 1016.8 hPa Calm     96 % 0 mm 0.00 W/m2 OVC
23:24 6.9 °C 6.3 °C 1016.8 hPa Calm     96 % 0 mm 0.00 W/m2 OVC
23:29 6.9 °C 6.3 °C 1016.5 hPa Calm     96 % 0 mm 0.00 W/m2 OVC
23:34 6.9 °C 6.3 °C 1016.5 hPa Calm     96 % 0 mm 0.00 W/m2 OVC
23:39 6.9 °C 6.3 °C 1016.5 hPa Calm     96 % 0 mm 0.00 W/m2 OVC
23:44 6.9 °C 6.3 °C 1016.5 hPa Calm     96 % 0 mm 0.00 W/m2 OVC
23:49 6.9 °C 6.3 °C 1016.5 hPa Calm     96 % 0 mm 0.00 W/m2 OVC
23:54 7 °C 6.4 °C 1016.5 hPa Calm     96 % 0 mm 0.00 W/m2 OVC
23:59 7 °C 6.4 °C 1016.5 hPa Calm     96 % 0 mm 0.00 W/m2 OVC
Murfreesboro Weather Live
Compliments of Weather Underground - 2.25 mb